createdAt,value
2019-05-13T00:00:33.917Z,1030.85
2019-05-13T00:01:31.316Z,1030.81
2019-05-13T00:02:31.315Z,1030.80
2019-05-13T00:03:33.390Z,1030.77
2019-05-13T00:04:33.146Z,1030.81
2019-05-13T00:05:33.705Z,1030.80
2019-05-13T00:06:31.284Z,1030.70
2019-05-13T00:07:31.258Z,1030.76
2019-05-13T00:08:33.621Z,1030.72
2019-05-13T00:09:33.735Z,1030.78
2019-05-13T00:10:31.230Z,1030.78
2019-05-13T00:11:31.219Z,1030.75
2019-05-13T00:12:31.186Z,1030.77
2019-05-13T00:13:31.190Z,1030.78
2019-05-13T00:14:31.159Z,1030.76
2019-05-13T00:15:33.706Z,1030.79
2019-05-13T00:16:31.157Z,1030.80
2019-05-13T00:17:31.131Z,1030.77
2019-05-13T00:18:31.129Z,1030.81
2019-05-13T00:19:31.115Z,1030.80
2019-05-13T00:20:33.516Z,1030.75
2019-05-13T00:21:31.099Z,1030.84
2019-05-13T00:22:31.085Z,1030.84
2019-05-13T00:23:31.072Z,1030.78
2019-05-13T00:24:33.679Z,1030.87
2019-05-13T00:25:33.579Z,1030.90
2019-05-13T00:26:33.610Z,1030.82
2019-05-13T00:27:31.021Z,1030.78
2019-05-13T00:28:31.019Z,1030.83
2019-05-13T00:29:31.029Z,1030.82
2019-05-13T00:30:31.010Z,1030.81
2019-05-13T00:31:33.206Z,1030.81
2019-05-13T00:32:30.983Z,1030.86
2019-05-13T00:33:30.964Z,1030.83
2019-05-13T00:34:30.958Z,1030.88
2019-05-13T00:35:30.949Z,1030.91
2019-05-13T00:36:30.957Z,1030.88
2019-05-13T00:37:33.283Z,1030.84
2019-05-13T00:38:30.906Z,1030.85
2019-05-13T00:39:33.413Z,1030.81
2019-05-13T00:40:33.426Z,1030.80
2019-05-13T00:41:30.912Z,1030.80
2019-05-13T00:42:33.332Z,1030.85
2019-05-13T00:43:30.856Z,1030.84
2019-05-13T00:44:30.840Z,1030.89
2019-05-13T00:45:30.844Z,1030.88
2019-05-13T00:46:30.816Z,1030.91
2019-05-13T00:47:30.828Z,1030.90
2019-05-13T00:48:30.800Z,1030.89
2019-05-13T00:49:30.794Z,1030.90
2019-05-13T00:50:30.784Z,1030.95
2019-05-13T00:51:30.764Z,1030.87
2019-05-13T00:52:30.796Z,1030.85
2019-05-13T00:53:30.756Z,1030.86
2019-05-13T00:54:30.770Z,1030.92
2019-05-13T00:55:30.731Z,1030.95
2019-05-13T00:56:30.714Z,1030.97
2019-05-13T00:57:30.742Z,1030.94
2019-05-13T00:58:30.703Z,1030.99
2019-05-13T00:59:30.706Z,1030.96
2019-05-13T01:00:30.709Z,1030.91
2019-05-13T01:01:30.659Z,1030.95
2019-05-13T01:02:30.673Z,1030.95
2019-05-13T01:03:30.639Z,1030.91
2019-05-13T01:04:30.635Z,1030.93
2019-05-13T01:05:30.636Z,1030.96
2019-05-13T01:06:30.620Z,1030.92
2019-05-13T01:07:30.659Z,1030.95
2019-05-13T01:08:30.593Z,1030.94
2019-05-13T01:09:30.575Z,1030.93
2019-05-13T01:10:30.574Z,1030.93
2019-05-13T01:11:30.580Z,1030.92
2019-05-13T01:12:30.574Z,1030.89
2019-05-13T01:13:30.536Z,1030.93
2019-05-13T01:14:30.534Z,1030.98
2019-05-13T01:15:30.535Z,1030.93
2019-05-13T01:16:30.514Z,1030.92
2019-05-13T01:17:30.519Z,1030.95
2019-05-13T01:18:30.485Z,1030.99
2019-05-13T01:19:30.568Z,1030.96
2019-05-13T01:20:30.470Z,1030.93
2019-05-13T01:21:30.455Z,1030.95
2019-05-13T01:22:30.463Z,1030.95
2019-05-13T01:23:30.435Z,1030.99
2019-05-13T01:24:30.442Z,1030.92
2019-05-13T01:25:30.429Z,1030.92
2019-05-13T01:26:30.390Z,1030.92
2019-05-13T01:27:30.410Z,1030.91
2019-05-13T01:28:30.385Z,1030.92
2019-05-13T01:29:30.368Z,1030.97
2019-05-13T01:30:30.363Z,1030.94
2019-05-13T01:31:30.346Z,1030.97
2019-05-13T01:32:30.354Z,1030.94
2019-05-13T01:33:30.322Z,1030.95
2019-05-13T01:34:30.323Z,1030.96
2019-05-13T01:35:30.301Z,1030.95
2019-05-13T01:36:30.290Z,1030.97
2019-05-13T01:37:40.022Z,1030.99
2019-05-13T01:38:31.273Z,1030.99
2019-05-13T01:39:30.265Z,1030.97
2019-05-13T01:40:30.260Z,1031.00
2019-05-13T01:41:30.233Z,1031.01
2019-05-13T01:42:30.285Z,1031.03
2019-05-13T01:43:30.220Z,1030.99
2019-05-13T01:44:30.215Z,1031.02
2019-05-13T01:45:30.204Z,1031.02
2019-05-13T01:46:30.187Z,1031.03
2019-05-13T01:47:30.215Z,1031.06
2019-05-13T01:48:30.160Z,1031.08
2019-05-13T01:49:30.152Z,1031.12
2019-05-13T01:50:30.144Z,1031.04
2019-05-13T01:51:30.169Z,1031.06
2019-05-13T01:52:30.129Z,1031.03
2019-05-13T01:53:30.189Z,1031.07
2019-05-13T01:54:30.096Z,1031.05
2019-05-13T01:55:30.095Z,1031.04
2019-05-13T01:56:30.079Z,1031.07
2019-05-13T01:57:30.066Z,1031.10
2019-05-13T01:58:30.134Z,1031.09
2019-05-13T01:59:30.046Z,1031.06
2019-05-13T02:00:30.037Z,1031.06
2019-05-13T02:01:30.023Z,1031.10
2019-05-13T02:02:30.024Z,1031.09
2019-05-13T02:03:30.092Z,1031.05
2019-05-13T02:04:30.000Z,1031.05
2019-05-13T02:05:29.987Z,1031.09
2019-05-13T02:06:30.007Z,1031.04
2019-05-13T02:07:29.962Z,1031.06
2019-05-13T02:08:29.970Z,1031.05
2019-05-13T02:09:29.939Z,1031.07
2019-05-13T02:10:29.927Z,1031.06
2019-05-13T02:11:29.947Z,1031.07
2019-05-13T02:12:29.907Z,1031.09
2019-05-13T02:13:29.927Z,1031.12
2019-05-13T02:14:29.877Z,1031.05
2019-05-13T02:15:29.882Z,1031.12
2019-05-13T02:16:29.861Z,1031.14
2019-05-13T02:17:29.861Z,1031.10
2019-05-13T02:18:29.859Z,1031.16
2019-05-13T02:19:29.835Z,1031.18
2019-05-13T02:20:29.834Z,1031.16
2019-05-13T02:21:29.816Z,1031.14
2019-05-13T02:22:29.797Z,1031.12
2019-05-13T02:23:29.819Z,1031.12
2019-05-13T02:24:29.778Z,1031.09
2019-05-13T02:25:29.780Z,1031.11
2019-05-13T02:26:29.788Z,1031.11
2019-05-13T02:27:29.743Z,1031.13
2019-05-13T02:28:29.762Z,1031.14
2019-05-13T02:29:29.726Z,1031.16
2019-05-13T02:30:29.714Z,1031.18
2019-05-13T02:31:41.349Z,1031.25
2019-05-13T02:32:32.966Z,1031.20
2019-05-13T02:33:33.542Z,1031.25
2019-05-13T02:34:32.155Z,1031.26
2019-05-13T02:35:32.465Z,1031.26
2019-05-13T02:36:32.721Z,1031.31
2019-05-13T02:37:33.896Z,1031.30
2019-05-13T02:38:31.786Z,1031.33
2019-05-13T02:39:32.875Z,1031.34
2019-05-13T02:40:32.465Z,1031.34
2019-05-13T02:41:29.605Z,1031.35
2019-05-13T02:42:32.525Z,1031.36
2019-05-13T02:43:32.967Z,1031.39
2019-05-13T02:44:32.957Z,1031.41
2019-05-13T02:45:29.555Z,1031.41
2019-05-13T02:46:29.546Z,1031.40
2019-05-13T02:47:32.854Z,1031.39
2019-05-13T02:48:32.615Z,1031.45
2019-05-13T02:49:32.480Z,1031.39
2019-05-13T02:50:29.536Z,1031.38
2019-05-13T02:51:29.489Z,1031.38
2019-05-13T02:52:33.188Z,1031.37
2019-05-13T02:53:29.475Z,1031.39
2019-05-13T02:54:29.492Z,1031.40
2019-05-13T02:55:32.686Z,1031.40
2019-05-13T02:56:29.437Z,1031.39
2019-05-13T02:57:32.649Z,1031.42
2019-05-13T02:59:33.469Z,1031.38
2019-05-13T03:00:32.609Z,1031.36
2019-05-13T03:02:32.717Z,1031.43
2019-05-13T03:03:32.428Z,1031.44
2019-05-13T03:04:32.308Z,1031.39
2019-05-13T03:05:31.928Z,1031.42
2019-05-13T03:06:32.799Z,1031.42
2019-05-13T03:07:29.315Z,1031.42
2019-05-13T03:08:46.173Z,1031.45
2019-05-13T03:09:32.587Z,1031.44
2019-05-13T03:10:29.286Z,1031.44
2019-05-13T03:11:29.286Z,1031.45
2019-05-13T03:12:31.991Z,1031.41
2019-05-13T03:13:32.281Z,1031.45
2019-05-13T03:14:32.050Z,1031.44
2019-05-13T03:15:32.458Z,1031.45
2019-05-13T03:16:32.235Z,1031.49
2019-05-13T03:17:32.408Z,1031.48
2019-05-13T03:18:33.086Z,1031.47
2019-05-13T03:19:32.941Z,1031.44
2019-05-13T03:21:32.652Z,1031.49
2019-05-13T03:22:31.840Z,1031.47
2019-05-13T03:23:32.413Z,1031.44
2019-05-13T03:25:33.034Z,1031.45
2019-05-13T03:26:52.937Z,1031.50
2019-05-13T03:27:33.308Z,1031.47
2019-05-13T03:28:29.113Z,1031.52
2019-05-13T03:29:32.136Z,1031.50
2019-05-13T03:30:34.638Z,1031.50
2019-05-13T03:31:35.552Z,1031.52
2019-05-13T03:32:41.820Z,1031.54
2019-05-13T03:33:35.877Z,1031.55
2019-05-13T03:34:35.602Z,1031.53
2019-05-13T03:35:36.006Z,1031.51
2019-05-13T03:36:35.763Z,1031.49
2019-05-13T03:37:34.488Z,1031.46
2019-05-13T03:38:29.012Z,1031.49
2019-05-13T03:39:43.178Z,1031.47
2019-05-13T03:40:28.983Z,1031.44
2019-05-13T03:41:28.971Z,1031.49
2019-05-13T03:42:37.830Z,1031.45
2019-05-13T03:43:32.256Z,1031.44
2019-05-13T03:44:32.226Z,1031.47
2019-05-13T03:45:28.945Z,1031.42
2019-05-13T03:46:28.931Z,1031.46
2019-05-13T03:47:28.882Z,1031.46
2019-05-13T03:48:28.881Z,1031.46
2019-05-13T03:49:28.885Z,1031.45
2019-05-13T03:50:31.510Z,1031.49
2019-05-13T03:51:32.682Z,1031.49
2019-05-13T03:52:28.847Z,1031.53
2019-05-13T03:53:28.846Z,1031.55
2019-05-13T03:54:37.858Z,1031.56
2019-05-13T03:55:28.818Z,1031.56
2019-05-13T03:56:28.813Z,1031.60
2019-05-13T03:57:28.789Z,1031.55
2019-05-13T03:58:32.158Z,1031.58
2019-05-13T03:59:28.794Z,1031.59
2019-05-13T04:00:32.064Z,1031.59
2019-05-13T04:01:32.277Z,1031.62
2019-05-13T04:02:28.720Z,1031.64
2019-05-13T04:03:28.734Z,1031.62
2019-05-13T04:04:32.157Z,1031.65
2019-05-13T04:05:28.714Z,1031.63
2019-05-13T04:06:28.690Z,1031.66
2019-05-13T04:07:28.691Z,1031.66
2019-05-13T04:08:28.683Z,1031.68
2019-05-13T04:09:32.521Z,1031.69
2019-05-13T04:10:33.114Z,1031.72
2019-05-13T04:11:28.646Z,1031.69
2019-05-13T04:12:28.757Z,1031.68
2019-05-13T04:13:28.615Z,1031.70
2019-05-13T04:14:28.607Z,1031.68
2019-05-13T04:15:31.825Z,1031.73
2019-05-13T04:16:28.582Z,1031.72
2019-05-13T04:17:31.885Z,1031.74
2019-05-13T04:18:28.569Z,1031.74
2019-05-13T04:19:28.560Z,1031.77
2019-05-13T04:20:28.580Z,1031.74
2019-05-13T04:21:28.563Z,1031.79
2019-05-13T04:22:28.518Z,1031.77
2019-05-13T04:23:28.525Z,1031.88
2019-05-13T04:24:28.514Z,1031.77
2019-05-13T04:25:28.499Z,1031.77
2019-05-13T04:26:28.492Z,1031.78
2019-05-13T04:27:28.482Z,1031.80
2019-05-13T04:28:28.473Z,1031.79
2019-05-13T04:29:28.443Z,1031.82
2019-05-13T04:30:28.445Z,1031.81
2019-05-13T04:31:28.448Z,1031.83
2019-05-13T04:32:29.240Z,1031.82
2019-05-13T04:33:28.419Z,1031.89
2019-05-13T04:34:28.401Z,1031.83
2019-05-13T04:35:28.407Z,1031.91
2019-05-13T04:36:28.415Z,1031.91
2019-05-13T04:37:28.370Z,1031.91
2019-05-13T04:38:28.372Z,1031.91
2019-05-13T04:39:41.882Z,1031.95
2019-05-13T04:40:29.339Z,1031.98
2019-05-13T04:41:28.353Z,1032.00
2019-05-13T04:42:28.313Z,1032.04
2019-05-13T04:43:31.653Z,1032.01
2019-05-13T04:44:32.045Z,1032.00
2019-05-13T04:45:28.283Z,1032.02
2019-05-13T04:46:28.334Z,1032.03
2019-05-13T04:47:28.259Z,1032.08
2019-05-13T04:48:28.273Z,1032.11
2019-05-13T04:49:28.244Z,1032.13
2019-05-13T04:50:28.242Z,1032.01
2019-05-13T04:51:28.247Z,1032.15
2019-05-13T04:52:28.206Z,1032.12
2019-05-13T04:53:28.198Z,1032.12
2019-05-13T04:54:28.193Z,1032.05
2019-05-13T04:55:28.204Z,1032.12
2019-05-13T04:56:28.208Z,1032.10
2019-05-13T04:57:28.158Z,1032.02
2019-05-13T04:58:28.163Z,1032.12
2019-05-13T05:00:32.176Z,1032.16
2019-05-13T05:01:55.345Z,1032.17
2019-05-13T05:02:42.765Z,1032.19
2019-05-13T05:03:35.146Z,1032.16
2019-05-13T05:04:34.004Z,1032.17
2019-05-13T05:05:29.073Z,1032.19
2019-05-13T05:06:28.081Z,1032.22
2019-05-13T05:07:28.075Z,1032.27
2019-05-13T05:08:28.031Z,1032.23
2019-05-13T05:09:28.019Z,1032.26
2019-05-13T05:10:34.740Z,1032.35
2019-05-13T05:11:31.917Z,1032.29
2019-05-13T05:12:28.012Z,1032.30
2019-05-13T05:13:27.988Z,1032.24
2019-05-13T05:14:27.982Z,1032.33
2019-05-13T05:15:27.984Z,1032.31
2019-05-13T05:16:27.950Z,1032.31
2019-05-13T05:17:27.986Z,1032.30
2019-05-13T05:18:27.945Z,1032.29
2019-05-13T05:19:27.931Z,1032.32
2019-05-13T05:21:29.068Z,1032.33
2019-05-13T05:22:27.898Z,1032.33
2019-05-13T05:24:38.106Z,1032.32
2019-05-13T05:25:38.052Z,1032.40
2019-05-13T05:26:38.040Z,1032.43
2019-05-13T05:27:38.386Z,1032.38
2019-05-13T05:28:38.025Z,1032.38
2019-05-13T05:29:38.050Z,1032.37
2019-05-13T05:30:38.049Z,1032.37
2019-05-13T05:31:38.011Z,1032.39
2019-05-13T05:32:38.010Z,1032.35
2019-05-13T05:33:37.970Z,1032.40
2019-05-13T05:34:37.961Z,1032.39
2019-05-13T05:35:37.963Z,1032.41
2019-05-13T05:36:37.931Z,1032.39
2019-05-13T05:37:38.383Z,1032.35
2019-05-13T05:38:37.920Z,1032.38
2019-05-13T05:39:37.918Z,1032.37
2019-05-13T05:40:37.952Z,1032.34
2019-05-13T05:41:37.898Z,1032.36
2019-05-13T05:42:37.904Z,1032.37
2019-05-13T05:43:37.866Z,1032.37
2019-05-13T05:44:37.854Z,1032.39
2019-05-13T05:45:37.839Z,1032.35
2019-05-13T05:46:37.827Z,1032.39
2019-05-13T05:47:37.853Z,1032.42
2019-05-13T05:48:37.834Z,1032.45
2019-05-13T05:49:37.805Z,1032.40
2019-05-13T05:50:37.791Z,1032.44
2019-05-13T05:51:37.786Z,1032.42
2019-05-13T05:52:37.770Z,1032.44
2019-05-13T05:53:37.779Z,1032.42
2019-05-13T05:54:37.751Z,1032.43
2019-05-13T05:55:37.744Z,1032.43
2019-05-13T05:56:37.731Z,1032.43
2019-05-13T05:57:37.720Z,1032.47
2019-05-13T05:58:37.729Z,1032.46
2019-05-13T05:59:37.689Z,1032.49
2019-05-13T06:00:37.693Z,1032.46
2019-05-13T06:01:37.672Z,1032.51
2019-05-13T06:02:37.688Z,1032.50
2019-05-13T06:03:37.673Z,1032.51
2019-05-13T06:04:37.651Z,1032.55
2019-05-13T06:05:37.641Z,1032.54
2019-05-13T06:06:37.644Z,1032.53
2019-05-13T06:07:37.613Z,1032.50
2019-05-13T06:08:37.641Z,1032.51
2019-05-13T06:09:37.641Z,1032.51
2019-05-13T06:10:49.127Z,1032.55
2019-05-13T06:11:38.567Z,1032.53
2019-05-13T06:12:37.563Z,1032.55
2019-05-13T06:13:37.632Z,1032.52
2019-05-13T06:14:37.563Z,1032.59
2019-05-13T06:15:37.528Z,1032.54
2019-05-13T06:16:37.531Z,1032.60
2019-05-13T06:17:37.520Z,1032.59
2019-05-13T06:18:37.608Z,1032.56
2019-05-13T06:19:37.531Z,1032.57
2019-05-13T06:20:37.487Z,1032.59
2019-05-13T06:21:41.889Z,1032.56
2019-05-13T06:22:37.495Z,1032.55
2019-05-13T06:23:41.869Z,1032.57
2019-05-13T06:24:37.428Z,1032.57
2019-05-13T06:25:37.444Z,1032.63
2019-05-13T06:27:38.657Z,1032.48
2019-05-13T06:28:58.478Z,1032.51
2019-05-13T06:29:58.402Z,1032.54
2019-05-13T06:30:37.408Z,1032.51
2019-05-13T06:32:38.548Z,1032.48
2019-05-13T06:33:37.355Z,1032.46
2019-05-13T06:34:37.316Z,1032.46
2019-05-13T06:35:37.314Z,1032.52
2019-05-13T06:37:38.494Z,1032.58
2019-05-13T06:38:58.375Z,1032.51
2019-05-13T06:39:37.306Z,1032.50
2019-05-13T06:40:37.296Z,1032.49
2019-05-13T06:41:37.300Z,1032.50
2019-05-13T06:42:37.263Z,1032.47
2019-05-13T06:43:41.848Z,1032.49
2019-05-13T06:44:37.206Z,1032.42
2019-05-13T06:45:37.246Z,1032.41
2019-05-13T06:46:37.205Z,1032.46
2019-05-13T06:47:37.190Z,1032.43
2019-05-13T06:48:37.190Z,1032.45
2019-05-13T06:49:37.261Z,1032.42
2019-05-13T06:50:37.182Z,1032.49
2019-05-13T06:51:37.138Z,1032.49
2019-05-13T06:54:59.153Z,1032.52
2019-05-13T06:55:37.092Z,1032.49
2019-05-13T06:56:39.086Z,1032.49
2019-05-13T06:58:38.254Z,1032.48
2019-05-13T06:59:37.080Z,1032.47
2019-05-13T07:00:58.703Z,1032.44
2019-05-13T07:01:37.026Z,1032.42
2019-05-13T07:02:37.032Z,1032.45
2019-05-13T07:03:41.793Z,1032.43
2019-05-13T07:04:37.040Z,1032.51
2019-05-13T07:06:38.169Z,1032.51
2019-05-13T07:07:36.974Z,1032.48
2019-05-13T07:08:36.953Z,1032.48
2019-05-13T07:09:37.021Z,1032.45
2019-05-13T07:10:41.272Z,1032.49
2019-05-13T07:11:37.008Z,1032.54
2019-05-13T07:12:36.964Z,1032.43
2019-05-13T07:13:36.901Z,1032.48
2019-05-13T07:14:41.159Z,1032.46
2019-05-13T07:17:38.043Z,1032.46
2019-05-13T07:18:57.885Z,1032.48
2019-05-13T07:19:41.241Z,1032.53
2019-05-13T07:20:38.829Z,1032.46
2019-05-13T07:21:41.704Z,1032.52
2019-05-13T07:22:38.810Z,1032.51
2019-05-13T07:23:36.793Z,1032.53
2019-05-13T07:24:36.805Z,1032.49
2019-05-13T07:25:36.807Z,1032.49
2019-05-13T07:26:36.751Z,1032.42
2019-05-13T07:28:37.907Z,1032.52
2019-05-13T07:29:36.771Z,1032.50
2019-05-13T07:30:36.718Z,1032.54
2019-05-13T07:31:36.721Z,1032.56
2019-05-13T07:33:38.014Z,1032.55
2019-05-13T07:34:57.707Z,1032.53
2019-05-13T07:35:38.026Z,1032.55
2019-05-13T07:36:36.721Z,1032.48
2019-05-13T07:38:37.845Z,1032.48
2019-05-13T07:40:46.759Z,1032.44
2019-05-13T07:42:07.765Z,1032.47
2019-05-13T07:42:46.746Z,1032.45
2019-05-13T07:43:46.726Z,1032.49
2019-05-13T07:44:46.742Z,1032.49
2019-05-13T07:45:51.265Z,1032.49
2019-05-13T07:46:46.719Z,1032.48
2019-05-13T07:47:48.797Z,1032.52
2019-05-13T07:48:46.680Z,1032.52
2019-05-13T07:49:51.372Z,1032.51
2019-05-13T07:50:59.003Z,1032.45
2019-05-13T07:51:47.662Z,1032.47
2019-05-13T07:52:46.659Z,1032.45
2019-05-13T07:53:46.636Z,1032.41
2019-05-13T07:54:54.914Z,1032.41
2019-05-13T07:55:46.674Z,1032.45
2019-05-13T07:56:46.610Z,1032.46
2019-05-13T07:57:46.653Z,1032.46
2019-05-13T07:58:46.691Z,1032.45
2019-05-13T07:59:46.552Z,1032.46
2019-05-13T08:00:46.629Z,1032.42
2019-05-13T08:01:46.621Z,1032.44
2019-05-13T08:02:46.651Z,1032.44
2019-05-13T08:03:46.540Z,1032.42
2019-05-13T08:04:49.408Z,1032.37
2019-05-13T08:05:46.552Z,1032.42
2019-05-13T08:06:46.478Z,1032.47
2019-05-13T08:08:47.648Z,1032.45
2019-05-13T08:09:46.466Z,1032.50
2019-05-13T08:10:46.608Z,1032.49
2019-05-13T08:12:04.321Z,1032.51
2019-05-13T08:12:47.416Z,1032.43
2019-05-13T08:13:46.416Z,1032.49
2019-05-13T08:14:46.404Z,1032.45
2019-05-13T08:15:46.511Z,1032.41
2019-05-13T08:16:46.400Z,1032.43
2019-05-13T08:17:47.722Z,1032.49
2019-05-13T08:18:46.354Z,1032.39
2019-05-13T08:19:55.764Z,1032.43
2019-05-13T08:20:46.416Z,1032.45
2019-05-13T08:21:46.340Z,1032.45
2019-05-13T08:22:51.845Z,1032.47
2019-05-13T08:23:46.395Z,1032.41
2019-05-13T08:24:46.294Z,1032.43
2019-05-13T08:25:46.331Z,1032.39
2019-05-13T08:27:47.458Z,1032.41
2019-05-13T08:29:00.056Z,1032.44
2019-05-13T08:30:08.252Z,1032.47
2019-05-13T08:31:57.922Z,1032.46
2019-05-13T08:32:57.877Z,1032.35
2019-05-13T08:33:57.885Z,1032.47
2019-05-13T08:35:01.430Z,1032.42
2019-05-13T08:36:01.114Z,1032.46
2019-05-13T08:36:57.828Z,1032.38
2019-05-13T08:37:57.813Z,1032.43
2019-05-13T08:38:57.863Z,1032.45
2019-05-13T08:39:57.844Z,1032.35
2019-05-13T08:41:01.895Z,1032.31
2019-05-13T08:42:11.767Z,1032.34
2019-05-13T08:43:01.457Z,1032.29
2019-05-13T08:44:01.750Z,1032.40
2019-05-13T08:44:57.793Z,1032.41
2019-05-13T08:45:57.770Z,1032.44
2019-05-13T08:46:59.315Z,1032.33
2019-05-13T08:47:57.721Z,1032.34
2019-05-13T08:49:06.763Z,1032.35
2019-05-13T08:50:00.730Z,1032.43
2019-05-13T08:50:58.853Z,1032.40
2019-05-13T08:52:06.021Z,1032.40
2019-05-13T08:52:57.651Z,1032.31
2019-05-13T08:53:57.656Z,1032.38
2019-05-13T08:54:57.639Z,1032.38
2019-05-13T08:55:57.628Z,1032.37
2019-05-13T08:56:57.641Z,1032.38
2019-05-13T08:57:57.639Z,1032.31
2019-05-13T08:58:57.633Z,1032.38
2019-05-13T08:59:57.585Z,1032.42
2019-05-13T09:00:59.129Z,1032.28
2019-05-13T09:01:59.351Z,1032.30
2019-05-13T09:04:01.870Z,1032.28
2019-05-13T09:08:08.567Z,1032.31
2019-05-13T09:09:08.570Z,1032.39
2019-05-13T09:10:08.618Z,1032.31
2019-05-13T09:11:08.595Z,1032.29
2019-05-13T09:12:11.624Z,1032.24
2019-05-13T09:13:08.515Z,1032.33
2019-05-13T09:14:08.528Z,1032.29
2019-05-13T09:15:08.536Z,1032.28
2019-05-13T09:16:08.524Z,1032.32
2019-05-13T09:18:11.443Z,1032.32
2019-05-13T09:19:08.469Z,1032.25
2019-05-13T09:20:08.457Z,1032.22
2019-05-13T09:21:11.648Z,1032.34
2019-05-13T09:23:11.513Z,1032.36
2019-05-13T09:24:36.628Z,1032.37
2019-05-13T09:26:42.134Z,1032.13
2019-05-13T09:27:19.501Z,1032.22
2019-05-13T09:28:21.767Z,1032.35
2019-05-13T09:29:19.466Z,1032.28
2019-05-13T09:30:22.138Z,1032.29
2019-05-13T09:31:22.089Z,1032.26
2019-05-13T09:32:21.572Z,1032.39
2019-05-13T09:33:21.757Z,1032.45
2019-05-13T09:34:21.930Z,1032.40
2019-05-13T09:35:22.208Z,1032.30
2019-05-13T09:36:22.407Z,1032.32
2019-05-13T09:38:22.325Z,1032.28
2019-05-13T09:39:21.597Z,1032.28
2019-05-13T09:40:22.185Z,1032.28
2019-05-13T09:41:21.574Z,1032.27
2019-05-13T09:42:21.487Z,1032.37
2019-05-13T09:43:22.182Z,1032.35
2019-05-13T09:44:21.629Z,1032.35
2019-05-13T09:45:21.450Z,1032.36
2019-05-13T09:46:22.625Z,1032.36
2019-05-13T09:47:21.558Z,1032.28
2019-05-13T09:52:42.853Z,1032.27
2019-05-13T09:53:41.679Z,1032.44
2019-05-13T09:55:41.679Z,1032.30
2019-05-13T09:56:42.656Z,1032.27
2019-05-13T09:57:41.513Z,1032.25
2019-05-13T09:58:42.072Z,1032.29
2019-05-13T09:59:42.173Z,1032.37
2019-05-13T10:00:42.093Z,1032.29
2019-05-13T10:01:42.766Z,1032.20
2019-05-13T10:02:42.657Z,1032.23
2019-05-13T10:03:53.716Z,1032.29
2019-05-13T10:05:43.605Z,1032.19
2019-05-13T10:08:04.323Z,1032.21
2019-05-13T10:09:02.408Z,1032.22
2019-05-13T10:09:42.938Z,1032.16
2019-05-13T10:10:47.539Z,1032.19
2019-05-13T10:11:40.525Z,1032.18
2019-05-13T10:12:44.468Z,1032.20
2019-05-13T10:13:40.529Z,1032.19
2019-05-13T10:21:52.479Z,1032.24
2019-05-13T10:22:52.524Z,1032.22
2019-05-13T10:23:51.212Z,1032.27
2019-05-13T10:24:51.664Z,1032.27
2019-05-13T10:25:52.153Z,1032.27
2019-05-13T10:26:51.585Z,1032.24
2019-05-13T10:27:51.158Z,1032.31
2019-05-13T10:28:51.161Z,1032.28
2019-05-13T10:29:51.848Z,1032.23
2019-05-13T10:30:53.149Z,1032.22
2019-05-13T10:31:51.504Z,1032.27
2019-05-13T10:32:52.720Z,1032.16
2019-05-13T10:34:06.011Z,1032.15
2019-05-13T10:34:51.975Z,1032.24
2019-05-13T10:35:52.435Z,1032.17
2019-05-13T10:36:51.461Z,1032.24
2019-05-13T10:37:52.312Z,1032.16
2019-05-13T10:38:52.216Z,1032.10
2019-05-13T10:39:51.785Z,1032.18
2019-05-13T10:40:51.911Z,1032.13
2019-05-13T10:41:52.370Z,1032.20
2019-05-13T10:42:52.430Z,1032.13
2019-05-13T10:43:52.066Z,1032.16
2019-05-13T10:44:52.328Z,1032.09
2019-05-13T10:45:52.250Z,1032.27
2019-05-13T10:46:52.267Z,1032.16
2019-05-13T10:47:51.927Z,1032.14
2019-05-13T10:48:52.676Z,1032.16
2019-05-13T10:49:52.325Z,1032.16
2019-05-13T10:50:52.984Z,1032.20
2019-05-13T10:51:52.603Z,1032.12
2019-05-13T10:52:52.173Z,1032.10
2019-05-13T10:53:53.588Z,1032.23
2019-05-13T10:54:52.668Z,1032.20
2019-05-13T10:55:52.217Z,1032.15
2019-05-13T10:56:53.139Z,1032.18
2019-05-13T10:57:51.866Z,1032.15
2019-05-13T10:58:53.389Z,1032.03
2019-05-13T10:59:52.505Z,1032.08
2019-05-13T11:00:51.751Z,1032.11
2019-05-13T11:01:50.806Z,1032.11
2019-05-13T11:02:50.811Z,1032.08
2019-05-13T11:03:52.402Z,1032.07
2019-05-13T11:04:52.561Z,1031.99
2019-05-13T11:05:52.548Z,1032.03
2019-05-13T11:06:52.435Z,1032.00
2019-05-13T11:07:51.730Z,1032.06
2019-05-13T11:08:53.036Z,1032.31
2019-05-13T11:09:52.666Z,1032.09
2019-05-13T11:10:53.104Z,1032.24
2019-05-13T11:11:52.823Z,1032.36
2019-05-13T11:12:52.057Z,1031.99
2019-05-13T11:13:58.783Z,1031.98
2019-05-13T11:14:53.980Z,1031.93
2019-05-13T11:15:57.541Z,1031.92
2019-05-13T11:16:52.449Z,1032.07
2019-05-13T11:17:51.890Z,1032.00
2019-05-13T11:18:51.911Z,1031.97
2019-05-13T11:19:50.626Z,1032.02
2019-05-13T11:20:50.629Z,1032.09
2019-05-13T11:21:51.014Z,1032.10
2019-05-13T11:22:52.161Z,1032.05
2019-05-13T11:23:51.834Z,1032.14
2019-05-13T11:24:51.841Z,1032.13
2019-05-13T11:25:52.282Z,1032.10
2019-05-13T11:26:52.969Z,1032.16
2019-05-13T11:27:52.401Z,1032.03
2019-05-13T11:28:52.471Z,1032.01
2019-05-13T11:29:52.384Z,1031.94
2019-05-13T11:30:52.008Z,1031.96
2019-05-13T11:31:52.412Z,1032.16
2019-05-13T11:32:51.822Z,1032.14
2019-05-13T11:33:51.976Z,1032.23
2019-05-13T11:34:53.110Z,1032.20
2019-05-13T11:35:52.365Z,1032.12
2019-05-13T11:36:53.346Z,1032.36
2019-05-13T11:37:52.158Z,1032.41
2019-05-13T11:38:53.069Z,1032.35
2019-05-13T11:39:51.627Z,1032.36
2019-05-13T11:40:52.332Z,1032.35
2019-05-13T11:41:50.380Z,1032.35
2019-05-13T11:42:52.663Z,1032.35
2019-05-13T11:44:10.984Z,1032.31
2019-05-13T11:44:52.728Z,1032.24
2019-05-13T11:45:50.894Z,1032.21
2019-05-13T11:46:52.969Z,1032.26
2019-05-13T11:47:52.220Z,1032.25
2019-05-13T11:48:51.917Z,1032.23
2019-05-13T11:49:52.164Z,1032.17
2019-05-13T11:50:53.635Z,1031.89
2019-05-13T11:51:51.984Z,1031.93
2019-05-13T11:52:52.419Z,1031.89
2019-05-13T11:53:50.551Z,1031.84
2019-05-13T11:54:53.178Z,1032.07
2019-05-13T11:55:52.319Z,1032.20
2019-05-13T11:57:00.834Z,1032.13
2019-05-13T11:57:53.095Z,1032.10
2019-05-13T11:58:53.416Z,1032.05
2019-05-13T11:59:52.697Z,1032.04
2019-05-13T12:00:53.171Z,1032.05
2019-05-13T12:01:53.895Z,1032.07
2019-05-13T12:02:54.365Z,1032.06
2019-05-13T12:03:53.177Z,1032.03
2019-05-13T12:04:54.024Z,1031.96
2019-05-13T12:05:53.413Z,1031.94
2019-05-13T12:06:54.295Z,1031.89
2019-05-13T12:07:53.487Z,1031.93
2019-05-13T12:08:53.993Z,1031.86
2019-05-13T12:09:51.804Z,1031.90
2019-05-13T12:10:51.854Z,1031.78
2019-05-13T12:11:50.074Z,1031.73
2019-05-13T12:12:50.063Z,1031.80
2019-05-13T12:13:52.885Z,1031.72
2019-05-13T12:15:20.242Z,1031.63
2019-05-13T12:15:53.942Z,1031.71
2019-05-13T12:16:50.047Z,1031.88
2019-05-13T12:17:52.361Z,1031.94
2019-05-13T12:18:52.499Z,1031.66
2019-05-13T12:19:50.023Z,1031.83
2019-05-13T12:20:53.607Z,1031.91
2019-05-13T12:21:53.681Z,1031.69
2019-05-13T12:22:52.037Z,1031.75
2019-05-13T12:23:52.460Z,1031.84
2019-05-13T12:24:51.545Z,1031.85
2019-05-13T12:25:52.590Z,1031.79
2019-05-13T12:26:53.306Z,1031.82
2019-05-13T12:27:51.934Z,1031.90
2019-05-13T12:28:53.524Z,1031.88
2019-05-13T12:29:52.856Z,1031.97
2019-05-13T12:30:52.802Z,1031.94
2019-05-13T12:31:52.729Z,1031.91
2019-05-13T12:32:51.871Z,1031.77
2019-05-13T12:33:52.209Z,1031.70
2019-05-13T12:34:52.737Z,1031.49
2019-05-13T12:35:53.003Z,1031.54
2019-05-13T12:36:49.837Z,1031.54
2019-05-13T12:37:53.074Z,1031.63
2019-05-13T12:38:53.703Z,1031.54
2019-05-13T12:39:53.025Z,1031.44
2019-05-13T12:40:52.701Z,1031.59
2019-05-13T12:41:49.790Z,1031.53
2019-05-13T12:42:53.658Z,1031.72
2019-05-13T12:43:53.603Z,1031.63
2019-05-13T12:45:04.024Z,1031.68
2019-05-13T12:45:53.366Z,1031.65
2019-05-13T12:46:51.487Z,1031.63
2019-05-13T12:47:50.299Z,1031.57
2019-05-13T12:48:49.717Z,1031.66
2019-05-13T12:49:49.931Z,1031.54
2019-05-13T12:50:52.951Z,1031.41
2019-05-13T12:51:51.734Z,1031.46